sensor_id;sensor_type;location;lat;lon;timestamp;P1;durP1;ratioP1;P2;durP2;ratioP2
11422;SDS011;5768;51.476;7.210;2022-12-18T00:05:09;6.50;;;5.07;;
11422;SDS011;5768;51.476;7.210;2022-12-18T00:10:12;6.20;;;5.20;;
11422;SDS011;5768;51.476;7.210;2022-12-18T00:15:17;6.10;;;4.73;;
11422;SDS011;5768;51.476;7.210;2022-12-18T00:20:20;9.63;;;5.97;;
11422;SDS011;5768;51.476;7.210;2022-12-18T00:25:27;6.03;;;5.03;;
11422;SDS011;5768;51.476;7.210;2022-12-18T00:30:29;5.97;;;4.70;;
11422;SDS011;5768;51.476;7.210;2022-12-18T00:35:31;9.33;;;5.90;;
11422;SDS011;5768;51.476;7.210;2022-12-18T00:40:35;7.67;;;5.93;;
11422;SDS011;5768;51.476;7.210;2022-12-18T00:45:37;10.13;;;6.23;;
11422;SDS011;5768;51.476;7.210;2022-12-18T00:50:39;6.93;;;5.30;;
11422;SDS011;5768;51.476;7.210;2022-12-18T00:55:45;7.07;;;4.57;;
11422;SDS011;5768;51.476;7.210;2022-12-18T01:00:48;5.87;;;5.17;;
11422;SDS011;5768;51.476;7.210;2022-12-18T01:05:50;6.20;;;5.00;;
11422;SDS011;5768;51.476;7.210;2022-12-18T01:10:54;5.97;;;5.17;;
11422;SDS011;5768;51.476;7.210;2022-12-18T01:15:56;5.93;;;4.57;;
11422;SDS011;5768;51.476;7.210;2022-12-18T01:20:58;5.30;;;4.03;;
11422;SDS011;5768;51.476;7.210;2022-12-18T01:26:05;4.80;;;4.30;;
11422;SDS011;5768;51.476;7.210;2022-12-18T01:31:12;5.33;;;4.30;;
11422;SDS011;5768;51.476;7.210;2022-12-18T01:36:19;6.20;;;4.40;;
11422;SDS011;5768;51.476;7.210;2022-12-18T01:41:28;6.00;;;5.00;;
11422;SDS011;5768;51.476;7.210;2022-12-18T01:46:47;5.67;;;4.63;;
11422;SDS011;5768;51.476;7.210;2022-12-18T01:51:49;6.27;;;4.70;;
11422;SDS011;5768;51.476;7.210;2022-12-18T01:56:55;4.70;;;4.20;;
11422;SDS011;5768;51.476;7.210;2022-12-18T02:01:58;5.87;;;4.40;;
11422;SDS011;5768;51.476;7.210;2022-12-18T02:07:02;5.73;;;4.10;;
11422;SDS011;5768;51.476;7.210;2022-12-18T02:12:18;5.17;;;4.40;;
11422;SDS011;5768;51.476;7.210;2022-12-18T02:17:25;4.70;;;3.87;;
11422;SDS011;5768;51.476;7.210;2022-12-18T02:22:41;4.60;;;3.80;;
11422;SDS011;5768;51.476;7.210;2022-12-18T02:28:08;4.20;;;3.57;;
11422;SDS011;5768;51.476;7.210;2022-12-18T02:33:16;4.20;;;3.23;;
11422;SDS011;5768;51.476;7.210;2022-12-18T02:38:20;3.40;;;3.10;;
11422;SDS011;5768;51.476;7.210;2022-12-18T02:43:24;3.83;;;3.30;;
11422;SDS011;5768;51.476;7.210;2022-12-18T02:48:28;3.50;;;3.03;;
11422;SDS011;5768;51.476;7.210;2022-12-18T02:53:33;3.77;;;3.37;;
11422;SDS011;5768;51.476;7.210;2022-12-18T02:58:47;4.57;;;3.30;;
11422;SDS011;5768;51.476;7.210;2022-12-18T03:04:00;3.40;;;3.10;;
11422;SDS011;5768;51.476;7.210;2022-12-18T03:09:10;3.97;;;3.07;;
11422;SDS011;5768;51.476;7.210;2022-12-18T03:14:20;3.30;;;3.00;;
11422;SDS011;5768;51.476;7.210;2022-12-18T03:19:27;4.13;;;3.03;;
11422;SDS011;5768;51.476;7.210;2022-12-18T03:24:34;3.40;;;3.10;;
11422;SDS011;5768;51.476;7.210;2022-12-18T03:29:42;3.83;;;3.07;;
11422;SDS011;5768;51.476;7.210;2022-12-18T03:34:51;3.97;;;3.23;;
11422;SDS011;5768;51.476;7.210;2022-12-18T03:39:59;3.97;;;3.50;;
11422;SDS011;5768;51.476;7.210;2022-12-18T03:45:05;5.00;;;3.30;;
11422;SDS011;5768;51.476;7.210;2022-12-18T03:50:16;3.70;;;3.13;;
11422;SDS011;5768;51.476;7.210;2022-12-18T03:55:26;3.60;;;2.97;;
11422;SDS011;5768;51.476;7.210;2022-12-18T04:00:35;3.50;;;3.17;;
11422;SDS011;5768;51.476;7.210;2022-12-18T04:05:39;3.53;;;3.10;;
11422;SDS011;5768;51.476;7.210;2022-12-18T04:10:44;4.37;;;3.40;;
11422;SDS011;5768;51.476;7.210;2022-12-18T04:15:48;3.73;;;3.33;;
11422;SDS011;5768;51.476;7.210;2022-12-18T04:20:50;3.50;;;3.20;;
11422;SDS011;5768;51.476;7.210;2022-12-18T04:25:52;3.97;;;3.57;;
11422;SDS011;5768;51.476;7.210;2022-12-18T04:30:56;4.37;;;3.90;;
11422;SDS011;5768;51.476;7.210;2022-12-18T04:35:58;5.07;;;3.63;;
11422;SDS011;5768;51.476;7.210;2022-12-18T04:41:00;4.20;;;3.80;;
11422;SDS011;5768;51.476;7.210;2022-12-18T04:46:05;3.70;;;3.33;;
11422;SDS011;5768;51.476;7.210;2022-12-18T04:51:09;4.40;;;3.37;;
11422;SDS011;5768;51.476;7.210;2022-12-18T04:56:12;3.33;;;3.03;;
11422;SDS011;5768;51.476;7.210;2022-12-18T05:01:17;2.87;;;2.40;;
11422;SDS011;5768;51.476;7.210;2022-12-18T05:06:20;3.37;;;2.80;;
11422;SDS011;5768;51.476;7.210;2022-12-18T05:11:22;3.70;;;2.70;;
11422;SDS011;5768;51.476;7.210;2022-12-18T05:16:26;3.10;;;2.80;;
11422;SDS011;5768;51.476;7.210;2022-12-18T05:21:28;3.10;;;2.80;;
11422;SDS011;5768;51.476;7.210;2022-12-18T05:26:30;3.50;;;3.17;;
11422;SDS011;5768;51.476;7.210;2022-12-18T05:31:33;3.70;;;3.10;;
11422;SDS011;5768;51.476;7.210;2022-12-18T05:36:36;3.80;;;3.17;;
11422;SDS011;5768;51.476;7.210;2022-12-18T05:41:38;4.13;;;3.67;;
11422;SDS011;5768;51.476;7.210;2022-12-18T05:46:42;4.03;;;3.60;;
11422;SDS011;5768;51.476;7.210;2022-12-18T05:51:44;4.70;;;3.97;;
11422;SDS011;5768;51.476;7.210;2022-12-18T05:56:46;5.03;;;4.20;;
11422;SDS011;5768;51.476;7.210;2022-12-18T06:01:49;5.43;;;4.70;;
11422;SDS011;5768;51.476;7.210;2022-12-18T06:06:51;5.57;;;4.53;;
11422;SDS011;5768;51.476;7.210;2022-12-18T06:11:53;5.50;;;4.57;;
11422;SDS011;5768;51.476;7.210;2022-12-18T06:16:57;5.67;;;4.60;;
11422;SDS011;5768;51.476;7.210;2022-12-18T06:21:59;5.47;;;4.73;;
11422;SDS011;5768;51.476;7.210;2022-12-18T06:27:02;5.20;;;4.67;;
11422;SDS011;5768;51.476;7.210;2022-12-18T06:32:05;5.47;;;4.53;;
11422;SDS011;5768;51.476;7.210;2022-12-18T06:37:08;5.60;;;4.47;;
11422;SDS011;5768;51.476;7.210;2022-12-18T06:42:10;5.10;;;4.40;;
11422;SDS011;5768;51.476;7.210;2022-12-18T06:47:14;5.00;;;4.50;;
11422;SDS011;5768;51.476;7.210;2022-12-18T06:52:16;5.40;;;4.20;;
11422;SDS011;5768;51.476;7.210;2022-12-18T06:57:18;6.03;;;4.60;;
11422;SDS011;5768;51.476;7.210;2022-12-18T07:02:22;4.57;;;4.10;;
11422;SDS011;5768;51.476;7.210;2022-12-18T07:07:24;4.63;;;4.13;;
11422;SDS011;5768;51.476;7.210;2022-12-18T07:12:27;5.03;;;4.20;;
11422;SDS011;5768;51.476;7.210;2022-12-18T07:17:31;5.37;;;4.03;;
11422;SDS011;5768;51.476;7.210;2022-12-18T07:22:33;5.37;;;4.23;;
11422;SDS011;5768;51.476;7.210;2022-12-18T07:27:35;5.27;;;4.47;;
11422;SDS011;5768;51.476;7.210;2022-12-18T07:32:39;6.63;;;4.93;;
11422;SDS011;5768;51.476;7.210;2022-12-18T07:37:41;5.33;;;4.57;;
11422;SDS011;5768;51.476;7.210;2022-12-18T07:42:47;5.23;;;4.63;;
11422;SDS011;5768;51.476;7.210;2022-12-18T07:47:50;7.03;;;5.03;;
11422;SDS011;5768;51.476;7.210;2022-12-18T07:52:52;7.10;;;6.13;;
11422;SDS011;5768;51.476;7.210;2022-12-18T07:57:54;7.17;;;5.67;;
11422;SDS011;5768;51.476;7.210;2022-12-18T08:02:58;6.93;;;5.80;;
11422;SDS011;5768;51.476;7.210;2022-12-18T08:08:00;6.30;;;5.33;;
11422;SDS011;5768;51.476;7.210;2022-12-18T08:13:02;6.67;;;5.37;;
11422;SDS011;5768;51.476;7.210;2022-12-18T08:18:06;8.93;;;5.23;;
11422;SDS011;5768;51.476;7.210;2022-12-18T08:23:12;6.83;;;5.13;;
11422;SDS011;5768;51.476;7.210;2022-12-18T08:28:14;5.93;;;4.40;;
11422;SDS011;5768;51.476;7.210;2022-12-18T08:33:17;5.40;;;4.33;;
11422;SDS011;5768;51.476;7.210;2022-12-18T08:38:20;4.97;;;3.93;;
11422;SDS011;5768;51.476;7.210;2022-12-18T08:43:23;4.93;;;4.17;;
11422;SDS011;5768;51.476;7.210;2022-12-18T08:48:44;5.23;;;4.37;;
11422;SDS011;5768;51.476;7.210;2022-12-18T08:53:47;5.60;;;4.60;;
11422;SDS011;5768;51.476;7.210;2022-12-18T08:58:51;5.37;;;4.23;;
11422;SDS011;5768;51.476;7.210;2022-12-18T09:03:55;4.30;;;3.90;;
11422;SDS011;5768;51.476;7.210;2022-12-18T09:08:57;5.57;;;4.30;;
11422;SDS011;5768;51.476;7.210;2022-12-18T09:14:00;3.80;;;2.50;;
11422;SDS011;5768;51.476;7.210;2022-12-18T09:19:04;2.67;;;2.20;;
11422;SDS011;5768;51.476;7.210;2022-12-18T09:24:08;2.40;;;2.13;;
11422;SDS011;5768;51.476;7.210;2022-12-18T09:29:15;3.17;;;2.50;;
11422;SDS011;5768;51.476;7.210;2022-12-18T09:34:19;186.73;;;10.47;;
11422;SDS011;5768;51.476;7.210;2022-12-18T09:39:22;2.87;;;2.20;;
11422;SDS011;5768;51.476;7.210;2022-12-18T09:44:25;2.60;;;2.27;;
11422;SDS011;5768;51.476;7.210;2022-12-18T09:49:32;2.40;;;2.00;;
11422;SDS011;5768;51.476;7.210;2022-12-18T09:54:41;3.00;;;2.20;;
11422;SDS011;5768;51.476;7.210;2022-12-18T09:59:51;2.47;;;2.00;;
11422;SDS011;5768;51.476;7.210;2022-12-18T10:05:06;3.10;;;2.20;;
11422;SDS011;5768;51.476;7.210;2022-12-18T10:10:18;2.67;;;2.03;;
11422;SDS011;5768;51.476;7.210;2022-12-18T10:15:34;2.60;;;2.40;;
11422;SDS011;5768;51.476;7.210;2022-12-18T10:20:49;2.57;;;2.10;;
11422;SDS011;5768;51.476;7.210;2022-12-18T10:25:58;2.70;;;2.17;;
11422;SDS011;5768;51.476;7.210;2022-12-18T10:31:05;2.60;;;2.13;;
11422;SDS011;5768;51.476;7.210;2022-12-18T10:36:09;2.90;;;2.20;;
11422;SDS011;5768;51.476;7.210;2022-12-18T10:41:23;2.27;;;2.07;;
11422;SDS011;5768;51.476;7.210;2022-12-18T10:46:28;2.60;;;2.30;;
11422;SDS011;5768;51.476;7.210;2022-12-18T10:51:32;2.47;;;2.23;;
11422;SDS011;5768;51.476;7.210;2022-12-18T10:56:38;2.83;;;2.53;;
11422;SDS011;5768;51.476;7.210;2022-12-18T11:01:48;4.03;;;2.50;;
11422;SDS011;5768;51.476;7.210;2022-12-18T11:06:57;4.40;;;2.60;;
11422;SDS011;5768;51.476;7.210;2022-12-18T11:12:03;3.67;;;2.53;;
11422;SDS011;5768;51.476;7.210;2022-12-18T11:17:18;2.30;;;2.10;;
11422;SDS011;5768;51.476;7.210;2022-12-18T11:22:25;2.80;;;2.50;;
11422;SDS011;5768;51.476;7.210;2022-12-18T11:27:30;3.83;;;2.90;;
11422;SDS011;5768;51.476;7.210;2022-12-18T11:32:36;4.27;;;2.50;;
11422;SDS011;5768;51.476;7.210;2022-12-18T11:37:44;3.57;;;2.60;;
11422;SDS011;5768;51.476;7.210;2022-12-18T11:42:52;3.93;;;2.47;;
11422;SDS011;5768;51.476;7.210;2022-12-18T11:48:04;3.47;;;2.77;;
11422;SDS011;5768;51.476;7.210;2022-12-18T11:53:24;4.00;;;2.83;;
11422;SDS011;5768;51.476;7.210;2022-12-18T11:58:32;5.40;;;3.07;;
11422;SDS011;5768;51.476;7.210;2022-12-18T12:03:57;2.70;;;2.50;;
11422;SDS011;5768;51.476;7.210;2022-12-18T12:09:24;2.87;;;2.47;;
11422;SDS011;5768;51.476;7.210;2022-12-18T12:14:41;8.27;;;7.00;;
11422;SDS011;5768;51.476;7.210;2022-12-18T12:19:55;4.77;;;2.80;;
11422;SDS011;5768;51.476;7.210;2022-12-18T12:25:17;3.73;;;2.90;;
11422;SDS011;5768;51.476;7.210;2022-12-18T12:30:33;2.90;;;2.60;;
11422;SDS011;5768;51.476;7.210;2022-12-18T12:35:56;3.20;;;2.90;;
11422;SDS011;5768;51.476;7.210;2022-12-18T12:41:12;3.00;;;2.70;;
11422;SDS011;5768;51.476;7.210;2022-12-18T12:46:38;4.10;;;3.20;;
11422;SDS011;5768;51.476;7.210;2022-12-18T12:51:47;4.40;;;3.30;;
11422;SDS011;5768;51.476;7.210;2022-12-18T12:57:01;5.43;;;3.20;;
11422;SDS011;5768;51.476;7.210;2022-12-18T13:02:15;4.30;;;3.20;;
11422;SDS011;5768;51.476;7.210;2022-12-18T13:07:26;3.77;;;3.37;;
11422;SDS011;5768;51.476;7.210;2022-12-18T13:12:44;4.40;;;3.83;;
11422;SDS011;5768;51.476;7.210;2022-12-18T13:18:11;3.83;;;3.40;;
11422;SDS011;5768;51.476;7.210;2022-12-18T13:23:26;3.97;;;3.47;;
11422;SDS011;5768;51.476;7.210;2022-12-18T13:28:54;6.47;;;3.90;;
11422;SDS011;5768;51.476;7.210;2022-12-18T13:34:08;4.63;;;4.13;;
11422;SDS011;5768;51.476;7.210;2022-12-18T13:39:34;4.70;;;4.07;;
11422;SDS011;5768;51.476;7.210;2022-12-18T13:44:45;4.63;;;4.17;;
11422;SDS011;5768;51.476;7.210;2022-12-18T13:49:48;4.83;;;4.33;;
11422;SDS011;5768;51.476;7.210;2022-12-18T13:54:52;5.13;;;4.43;;
11422;SDS011;5768;51.476;7.210;2022-12-18T14:00:11;6.13;;;4.70;;
11422;SDS011;5768;51.476;7.210;2022-12-18T14:05:26;5.77;;;5.03;;
11422;SDS011;5768;51.476;7.210;2022-12-18T14:10:33;5.70;;;4.90;;
11422;SDS011;5768;51.476;7.210;2022-12-18T14:15:43;5.43;;;4.90;;
11422;SDS011;5768;51.476;7.210;2022-12-18T14:20:49;7.23;;;5.60;;
11422;SDS011;5768;51.476;7.210;2022-12-18T14:26:02;6.93;;;5.47;;
11422;SDS011;5768;51.476;7.210;2022-12-18T14:31:29;5.73;;;5.00;;
11422;SDS011;5768;51.476;7.210;2022-12-18T14:36:32;6.43;;;5.50;;
11422;SDS011;5768;51.476;7.210;2022-12-18T14:41:34;7.10;;;5.67;;
11422;SDS011;5768;51.476;7.210;2022-12-18T14:46:38;13.57;;;6.40;;
11422;SDS011;5768;51.476;7.210;2022-12-18T14:51:51;7.23;;;5.93;;
11422;SDS011;5768;51.476;7.210;2022-12-18T14:56:56;7.07;;;5.87;;
11422;SDS011;5768;51.476;7.210;2022-12-18T15:02:10;8.33;;;5.97;;
11422;SDS011;5768;51.476;7.210;2022-12-18T15:07:22;7.00;;;6.27;;
11422;SDS011;5768;51.476;7.210;2022-12-18T15:12:32;9.87;;;6.60;;
11422;SDS011;5768;51.476;7.210;2022-12-18T15:17:38;7.87;;;6.33;;
11422;SDS011;5768;51.476;7.210;2022-12-18T15:22:47;7.03;;;5.07;;
11422;SDS011;5768;51.476;7.210;2022-12-18T15:27:53;6.90;;;6.17;;
11422;SDS011;5768;51.476;7.210;2022-12-18T15:38:28;8.07;;;6.30;;
11422;SDS011;5768;51.476;7.210;2022-12-18T15:43:32;7.73;;;6.67;;
11422;SDS011;5768;51.476;7.210;2022-12-18T15:48:39;9.93;;;7.57;;
11422;SDS011;5768;51.476;7.210;2022-12-18T15:53:52;8.70;;;7.23;;
11422;SDS011;5768;51.476;7.210;2022-12-18T15:59:04;11.47;;;7.53;;
11422;SDS011;5768;51.476;7.210;2022-12-18T16:04:14;9.83;;;7.60;;
11422;SDS011;5768;51.476;7.210;2022-12-18T16:09:20;10.23;;;8.23;;
11422;SDS011;5768;51.476;7.210;2022-12-18T16:14:26;8.93;;;7.50;;
11422;SDS011;5768;51.476;7.210;2022-12-18T16:19:32;10.03;;;8.13;;
11422;SDS011;5768;51.476;7.210;2022-12-18T16:24:45;9.53;;;8.43;;
11422;SDS011;5768;51.476;7.210;2022-12-18T16:29:51;9.77;;;8.37;;
11422;SDS011;5768;51.476;7.210;2022-12-18T16:35:00;11.17;;;9.00;;
11422;SDS011;5768;51.476;7.210;2022-12-18T16:40:13;12.03;;;8.80;;
11422;SDS011;5768;51.476;7.210;2022-12-18T16:45:17;10.63;;;8.47;;
11422;SDS011;5768;51.476;7.210;2022-12-18T16:50:21;9.80;;;8.00;;
11422;SDS011;5768;51.476;7.210;2022-12-18T16:55:25;10.80;;;8.80;;
11422;SDS011;5768;51.476;7.210;2022-12-18T17:00:33;11.03;;;9.67;;
11422;SDS011;5768;51.476;7.210;2022-12-18T17:05:39;11.73;;;9.60;;
11422;SDS011;5768;51.476;7.210;2022-12-18T17:10:44;11.97;;;10.17;;
11422;SDS011;5768;51.476;7.210;2022-12-18T17:15:47;12.03;;;9.07;;
11422;SDS011;5768;51.476;7.210;2022-12-18T17:20:51;13.73;;;10.20;;
11422;SDS011;5768;51.476;7.210;2022-12-18T17:25:54;13.10;;;9.77;;
11422;SDS011;5768;51.476;7.210;2022-12-18T17:31:01;12.47;;;10.50;;
11422;SDS011;5768;51.476;7.210;2022-12-18T17:36:16;12.70;;;10.33;;
11422;SDS011;5768;51.476;7.210;2022-12-18T17:41:19;12.27;;;9.50;;
11422;SDS011;5768;51.476;7.210;2022-12-18T17:46:26;11.07;;;9.10;;
11422;SDS011;5768;51.476;7.210;2022-12-18T17:51:32;13.50;;;11.43;;
11422;SDS011;5768;51.476;7.210;2022-12-18T17:56:41;13.07;;;11.07;;
11422;SDS011;5768;51.476;7.210;2022-12-18T18:01:43;13.20;;;10.20;;
11422;SDS011;5768;51.476;7.210;2022-12-18T18:06:47;12.90;;;9.60;;
11422;SDS011;5768;51.476;7.210;2022-12-18T18:11:49;13.73;;;10.07;;
11422;SDS011;5768;51.476;7.210;2022-12-18T18:17:09;10.77;;;8.70;;
11422;SDS011;5768;51.476;7.210;2022-12-18T18:22:22;13.93;;;10.70;;
11422;SDS011;5768;51.476;7.210;2022-12-18T18:27:26;13.87;;;11.13;;
11422;SDS011;5768;51.476;7.210;2022-12-18T18:32:29;14.03;;;10.27;;
11422;SDS011;5768;51.476;7.210;2022-12-18T18:37:33;13.63;;;11.13;;
11422;SDS011;5768;51.476;7.210;2022-12-18T18:42:35;15.20;;;11.70;;
11422;SDS011;5768;51.476;7.210;2022-12-18T18:47:38;15.13;;;11.17;;
11422;SDS011;5768;51.476;7.210;2022-12-18T18:52:43;12.33;;;9.43;;
11422;SDS011;5768;51.476;7.210;2022-12-18T18:57:45;15.00;;;11.77;;
11422;SDS011;5768;51.476;7.210;2022-12-18T19:02:48;15.70;;;12.53;;
11422;SDS011;5768;51.476;7.210;2022-12-18T19:07:52;16.17;;;12.60;;
11422;SDS011;5768;51.476;7.210;2022-12-18T19:12:56;15.37;;;12.10;;
11422;SDS011;5768;51.476;7.210;2022-12-18T19:18:16;17.07;;;13.10;;
11422;SDS011;5768;51.476;7.210;2022-12-18T19:23:20;13.37;;;11.13;;
11422;SDS011;5768;51.476;7.210;2022-12-18T19:28:22;16.83;;;13.17;;
11422;SDS011;5768;51.476;7.210;2022-12-18T19:33:28;15.87;;;12.30;;
11422;SDS011;5768;51.476;7.210;2022-12-18T19:38:34;15.10;;;11.90;;
11422;SDS011;5768;51.476;7.210;2022-12-18T19:43:36;15.77;;;12.20;;
11422;SDS011;5768;51.476;7.210;2022-12-18T19:48:39;16.53;;;12.83;;
11422;SDS011;5768;51.476;7.210;2022-12-18T19:53:44;14.93;;;11.53;;
11422;SDS011;5768;51.476;7.210;2022-12-18T19:58:47;15.73;;;12.27;;
11422;SDS011;5768;51.476;7.210;2022-12-18T20:03:49;15.90;;;12.57;;
11422;SDS011;5768;51.476;7.210;2022-12-18T20:08:57;16.87;;;13.23;;
11422;SDS011;5768;51.476;7.210;2022-12-18T20:14:05;15.67;;;12.33;;
11422;SDS011;5768;51.476;7.210;2022-12-18T20:19:08;15.43;;;11.33;;
11422;SDS011;5768;51.476;7.210;2022-12-18T20:24:16;15.90;;;12.50;;
11422;SDS011;5768;51.476;7.210;2022-12-18T20:29:18;15.67;;;11.73;;
11422;SDS011;5768;51.476;7.210;2022-12-18T20:34:20;15.30;;;11.70;;
11422;SDS011;5768;51.476;7.210;2022-12-18T20:39:24;14.77;;;11.77;;
11422;SDS011;5768;51.476;7.210;2022-12-18T20:44:27;16.17;;;11.83;;
11422;SDS011;5768;51.476;7.210;2022-12-18T20:49:29;16.27;;;12.33;;
11422;SDS011;5768;51.476;7.210;2022-12-18T20:54:34;15.27;;;11.50;;
11422;SDS011;5768;51.476;7.210;2022-12-18T20:59:36;15.97;;;12.30;;
11422;SDS011;5768;51.476;7.210;2022-12-18T21:04:42;15.77;;;12.30;;
11422;SDS011;5768;51.476;7.210;2022-12-18T21:09:45;16.37;;;12.77;;
11422;SDS011;5768;51.476;7.210;2022-12-18T21:14:47;15.80;;;12.63;;
11422;SDS011;5768;51.476;7.210;2022-12-18T21:19:50;17.07;;;12.57;;
11422;SDS011;5768;51.476;7.210;2022-12-18T21:24:54;16.00;;;12.40;;
11422;SDS011;5768;51.476;7.210;2022-12-18T21:29:56;15.67;;;12.00;;
11422;SDS011;5768;51.476;7.210;2022-12-18T21:34:59;14.87;;;12.07;;
11422;SDS011;5768;51.476;7.210;2022-12-18T21:40:03;16.07;;;11.93;;
11422;SDS011;5768;51.476;7.210;2022-12-18T21:45:08;13.77;;;11.20;;
11422;SDS011;5768;51.476;7.210;2022-12-18T21:50:11;14.87;;;11.03;;
11422;SDS011;5768;51.476;7.210;2022-12-18T21:55:14;16.27;;;12.50;;
11422;SDS011;5768;51.476;7.210;2022-12-18T22:00:17;14.90;;;12.07;;
11422;SDS011;5768;51.476;7.210;2022-12-18T22:05:19;15.47;;;12.10;;
11422;SDS011;5768;51.476;7.210;2022-12-18T22:10:23;14.97;;;11.67;;
11422;SDS011;5768;51.476;7.210;2022-12-18T22:15:26;14.53;;;12.10;;
11422;SDS011;5768;51.476;7.210;2022-12-18T22:20:28;15.93;;;11.73;;
11422;SDS011;5768;51.476;7.210;2022-12-18T22:25:32;15.33;;;11.13;;
11422;SDS011;5768;51.476;7.210;2022-12-18T22:30:34;13.80;;;10.40;;
11422;SDS011;5768;51.476;7.210;2022-12-18T22:35:37;14.70;;;11.47;;
11422;SDS011;5768;51.476;7.210;2022-12-18T22:40:40;15.13;;;11.83;;
11422;SDS011;5768;51.476;7.210;2022-12-18T22:45:45;16.37;;;13.00;;
11422;SDS011;5768;51.476;7.210;2022-12-18T22:50:48;13.80;;;10.40;;
11422;SDS011;5768;51.476;7.210;2022-12-18T22:55:55;15.57;;;11.20;;
11422;SDS011;5768;51.476;7.210;2022-12-18T23:01:02;15.60;;;11.57;;
11422;SDS011;5768;51.476;7.210;2022-12-18T23:06:06;15.37;;;10.70;;
11422;SDS011;5768;51.476;7.210;2022-12-18T23:11:13;13.60;;;10.50;;
11422;SDS011;5768;51.476;7.210;2022-12-18T23:16:20;15.13;;;11.17;;
11422;SDS011;5768;51.476;7.210;2022-12-18T23:21:22;16.30;;;12.40;;
11422;SDS011;5768;51.476;7.210;2022-12-18T23:26:26;12.33;;;8.60;;
11422;SDS011;5768;51.476;7.210;2022-12-18T23:31:29;15.30;;;12.07;;
11422;SDS011;5768;51.476;7.210;2022-12-18T23:36:33;14.60;;;11.03;;
11422;SDS011;5768;51.476;7.210;2022-12-18T23:41:37;15.60;;;11.83;;
11422;SDS011;5768;51.476;7.210;2022-12-18T23:46:39;15.57;;;11.63;;
11422;SDS011;5768;51.476;7.210;2022-12-18T23:51:41;14.07;;;11.53;;
11422;SDS011;5768;51.476;7.210;2022-12-18T23:56:45;16.77;;;12.70;;
